Have a Safe July 4th! 

Flight Track Log - Related Links

Times and Time Zones

All times are in EDT time to prevent confusion due to time zone crossing. See the N747FE flight status page for this flight to view local times or setup timezone preferences in your user account.

Time Position Orientation Groundspeed Altitude Reporting Facility
EDT Latitude Longitude Course Direction KTS MPH feet Rate Location/Type
Tue 01:19:29 PM 39.7167 -86.2667 108° East 113 130 1,200  Level Indianapolis TRACON
Tue 01:20:53 PM 39.7000 -86.2000 108° East 117 135 2,600 857 Climbing Indianapolis TRACON
Tue 01:22:10 PM 39.6864 -86.1625 115° Southeast 122 140 3,500 734 Climbing Indianapolis Center
Tue 01:23:12 PM 39.6825 -86.1222 97° East 118 136 4,300 823 Climbing Indianapolis Center
Tue 01:24:14 PM 39.6725 -86.0714 104° East 120 138 5,200 780 Climbing Indianapolis Center
Tue 01:25:15 PM 39.6664 -86.0275 100° East 122 140 5,900 683 Climbing Indianapolis Center
Tue 01:26:17 PM 39.6586 -85.9828 103° East 125 144 6,600 532 Climbing Indianapolis Center
Tue 01:27:19 PM 39.6536 -85.9375 98° East 127 146 7,000 195 Climbing Indianapolis Center
Tue 01:28:20 PM 39.6436 -85.8853 104° East 142 163 7,000  Level Indianapolis Center
Tue 01:29:22 PM 39.6342 -85.8308 103° East 154 177 7,000  Level Indianapolis Center
Tue 01:30:24 PM 39.6111 -85.7719 117° Southeast 155 178 7,000  Level Indianapolis Center
Tue 01:31:25 PM 39.5831 -85.7319 132° Southeast 150 173 7,000  Level Indianapolis Center
Tue 01:32:27 PM 39.5564 -85.6844 126° Southeast 159 183 7,000  Level Indianapolis Center
Tue 01:33:29 PM 39.5317 -85.6389 125° Southeast 158 182 7,000  Level Indianapolis Center
Tue 01:34:30 PM 39.5075 -85.5942 125° Southeast 154 177 7,000  Level Indianapolis Center
Tue 01:35:32 PM 39.4836 -85.5489 124° Southeast 153 176 7,000  Level Indianapolis Center
Tue 01:36:34 PM 39.4578 -85.5019 125° Southeast 159 183 7,000  Level Indianapolis Center
Tue 01:37:35 PM 39.4286 -85.4467 124° Southeast 156 180 7,000  Level Indianapolis Center
Tue 01:38:37 PM 39.4036 -85.4017 126° Southeast 157 181 7,000  Level Indianapolis Center
Tue 01:39:39 PM 39.3792 -85.3575 126° Southeast 153 176 7,000  Level Indianapolis Center
Tue 01:40:40 PM 39.3539 -85.3106 125° Southeast 158 182 7,000  Level Indianapolis Center
Tue 01:41:42 PM 39.3219 -85.2722 137° Southeast 157 181 7,000  Level Indianapolis Center
Tue 01:42:44 PM 39.2897 -85.2364 139° Southeast 155 178 7,000  Level Indianapolis Center
Tue 01:43:45 PM 39.2589 -85.2011 138° Southeast 149 171 7,000  Level Indianapolis Center
Tue 01:44:47 PM 39.2217 -85.1578 138° Southeast 150 173 7,000  Level Indianapolis Center
Tue 01:45:49 PM 39.1906 -85.1228 139° Southeast 150 173 7,000  Level Indianapolis Center
Tue 01:46:50 PM 39.1597 -85.0875 138° Southeast 148 170 7,000  Level Indianapolis Center
Tue 01:47:52 PM 39.1289 -85.0519 138° Southeast 149 171 7,000  Level Indianapolis Center
Tue 01:48:53 PM 39.0958 -85.0167 140° Southeast 152 175 7,000  Level Indianapolis Center
Tue 01:49:55 PM 39.0656 -84.9814 138° Southeast 149 171 7,000  Level Indianapolis Center
Tue 01:50:57 PM 39.0339 -84.9475 140° Southeast 149 171 7,000  Level Indianapolis Center
Tue 01:51:58 PM 38.9958 -84.9036 138° Southeast 152 175 7,000  Level Indianapolis Center
Tue 01:53:00 PM 38.9653 -84.8683 138° Southeast 148 170 7,000  Level Indianapolis Center
Tue 01:53:38 PM 38.9500 -84.8333 119° Southeast 149 171 7,000  Level Cincinnati TRACON
Tue 01:54:32 PM 38.9167 -84.8167 159° South 151 174 7,000  Level Cincinnati TRACON
Tue 01:55:32 PM 38.8833 -84.7667 131° Southeast 151 174 7,000  Level Cincinnati TRACON
Tue 01:56:04 PM 38.8694 -84.7642 172° South 152 175 7,000  Level Indianapolis Center
Tue 01:57:06 PM 38.8386 -84.7269 137° Southeast 153 176 7,000  Level Indianapolis Center
Tue 01:58:07 PM 38.8078 -84.6900 137° Southeast 152 175 7,000  Level Indianapolis Center
Tue 01:59:09 PM 38.7756 -84.6547 140° Southeast 153 176 7,000  Level Indianapolis Center
Tue 02:00:10 PM 38.7383 -84.6128 139° Southeast 149 171 7,000  Level Indianapolis Center
Tue 02:01:12 PM 38.7056 -84.5756 138° Southeast 150 173 7,000  Level Indianapolis Center
Tue 02:02:13 PM 38.6742 -84.5397 138° Southeast 151 174 7,000  Level Indianapolis Center
Tue 02:03:15 PM 38.6417 -84.5061 141° Southeast 150 173 7,000 48 Level Indianapolis Center
Tue 02:04:17 PM 38.6108 -84.4686 136° Southeast 152 175 7,100  Climbing Indianapolis Center
Tue 02:05:18 PM 38.5781 -84.4361 142° Southeast 150 173 7,000 -293 Descending Indianapolis Center
Tue 02:06:20 PM 38.5475 -84.3983 136° Southeast 152 175 6,500  Descending Indianapolis Center
Tue 02:07:21 PM 38.5139 -84.3636 141° Southeast 154 177 7,000 293 Climbing Indianapolis Center
Tue 02:08:23 PM 38.4800 -84.3228 137° Southeast 146 168 7,100  Climbing Indianapolis Center
Tue 02:09:24 PM 38.4486 -84.2878 139° Southeast 148 170 7,000 -49 Descending Indianapolis Center
Tue 02:10:26 PM 38.4169 -84.2544 140° Southeast 148 170 7,000 49 Level Indianapolis Center
Tue 02:11:27 PM 38.3856 -84.2186 138° Southeast 150 173 7,100  Climbing Indianapolis Center
Tue 02:12:28 PM 38.3533 -84.1836 140° Southeast 152 175 7,000 -49 Descending Indianapolis Center
Tue 02:13:30 PM 38.3211 -84.1461 138° Southeast 155 178 7,000 48 Level Indianapolis Center
Tue 02:14:32 PM 38.2889 -84.1125 141° Southeast 152 175 7,100 49 Climbing Indianapolis Center
Tue 02:15:33 PM 38.2567 -84.0778 140° Southeast 151 174 7,100 -49 Level Indianapolis Center
Tue 02:16:34 PM 38.2208 -84.0347 137° Southeast 150 173 7,000  Descending Indianapolis Center
Tue 02:17:36 PM 38.1894 -83.9997 139° Southeast 150 173 7,100 49 Climbing Indianapolis Center
Tue 02:18:37 PM 38.1569 -83.9644 140° Southeast 152 175 7,100 -49 Level Indianapolis Center
Tue 02:19:39 PM 38.1247 -83.9297 140° Southeast 152 175 7,000  Descending Indianapolis Center
Tue 02:20:40 PM 38.0933 -83.8939 138° Southeast 151 174 7,100  Climbing Indianapolis Center
Tue 02:21:42 PM 38.0619 -83.8594 139° Southeast 150 173 7,000 -49 Descending Indianapolis Center
Tue 02:22:43 PM 38.0300 -83.8250 140° Southeast 150 173 7,000  Level Indianapolis Center
Tue 02:23:45 PM 37.9978 -83.7889 139° Southeast 151 174 7,000  Level Indianapolis Center
Tue 02:24:46 PM 37.9564 -83.7558 148° Southeast 151 174 7,000 -49 Level Indianapolis Center
Tue 02:25:48 PM 37.9275 -83.7158 132° Southeast 150 173 6,900 -49 Descending Indianapolis Center
Tue 02:26:49 PM 37.8986 -83.6744 131° Southeast 154 177 6,900  Level Indianapolis Center
Tue 02:27:51 PM 37.8656 -83.6381 139° Southeast 156 180 6,900  Level Indianapolis Center
Tue 02:28:52 PM 37.8322 -83.6044 141° Southeast 155 178 6,900  Level Indianapolis Center
Tue 02:29:54 PM 37.8008 -83.5717 140° Southeast 150 173 6,900  Level Indianapolis Center
Tue 02:30:56 PM 37.7681 -83.5369 140° Southeast 151 174 6,900  Level Indianapolis Center
Tue 02:31:57 PM 37.7311 -83.4967 139° Southeast 151 174 6,900  Level Indianapolis Center
Tue 02:32:59 PM 37.6989 -83.4617 139° Southeast 151 174 6,900  Level Indianapolis Center
Tue 02:34:00 PM 37.6722 -83.4200 129° Southeast 151 174 6,900 49 Level Indianapolis Center
Tue 02:35:02 PM 37.6514 -83.3661 116° Southeast 159 183 7,000  Climbing Indianapolis Center
Tue 02:36:03 PM 37.6294 -83.3144 118° Southeast 165 190 6,900 -49 Descending Indianapolis Center
Tue 02:37:05 PM 37.6050 -83.2681 124° Southeast 162 186 6,900  Level Indianapolis Center
Tue 02:38:07 PM 37.5772 -83.2269 130° Southeast 157 181 6,900  Level Indianapolis Center
Tue 02:39:08 PM 37.5486 -83.1906 135° Southeast 152 175 6,900 49 Level Indianapolis Center
Tue 02:40:10 PM 37.5269 -83.1297 114° Southeast 159 183 7,000  Climbing Indianapolis Center
Tue 02:41:11 PM 37.5050 -83.0808 119° Southeast 161 185 6,900 -49 Descending Indianapolis Center
Tue 02:42:13 PM 37.4828 -83.0308 119° Southeast 162 186 6,900  Level Indianapolis Center
Tue 02:43:15 PM 37.4608 -82.9819 119° Southeast 161 185 6,900  Level Indianapolis Center
Tue 02:44:16 PM 37.4383 -82.9317 119° Southeast 163 188 6,900  Level Indianapolis Center
Tue 02:45:18 PM 37.4178 -82.8814 117° Southeast 162 186 6,900  Level Indianapolis Center
Tue 02:46:20 PM 37.3972 -82.8314 117° Southeast 161 185 6,900  Level Indianapolis Center
Tue 02:47:21 PM 37.3761 -82.7808 118° Southeast 163 188 6,900  Level Indianapolis Center
Tue 02:48:23 PM 37.3503 -82.7253 120° Southeast 158 182 6,900  Level Indianapolis Center
Tue 02:49:25 PM 37.3286 -82.6767 119° Southeast 158 182 6,900  Level Indianapolis Center
Tue 02:50:26 PM 37.3067 -82.6272 119° Southeast 160 184 6,900 49 Level Indianapolis Center
Tue 02:51:28 PM 37.2856 -82.5772 118° Southeast 162 186 7,000  Climbing Indianapolis Center
Tue 02:52:30 PM 37.2650 -82.5267 117° Southeast 162 186 6,900 -49 Descending Indianapolis Center
Tue 02:53:31 PM 37.2442 -82.4758 117° Southeast 163 188 6,900  Level Indianapolis Center
Tue 02:54:33 PM 37.2217 -82.4258 119° Southeast 164 189 6,900  Level Indianapolis Center
Tue 02:55:35 PM 37.1950 -82.3672 120° Southeast 165 190 6,900  Level Indianapolis Center
Tue 02:56:37 PM 37.1750 -82.3178 117° Southeast 161 185 6,900  Level Indianapolis Center
Tue 02:57:38 PM 37.1533 -82.2667 118° Southeast 163 188 6,900  Level Indianapolis Center
Tue 02:58:40 PM 37.1303 -82.2169 120° Southeast 165 190 6,900 48 Level Indianapolis Center
Tue 02:59:42 PM 37.1089 -82.1669 118° Southeast 163 188 7,000 49 Climbing Indianapolis Center
Tue 03:00:43 PM 37.0867 -82.1172 119° Southeast 163 188 7,000  Level Indianapolis Center
Tue 03:01:45 PM 37.0644 -82.0694 120° Southeast 161 185 7,000  Level Indianapolis Center
Tue 03:02:47 PM 37.0406 -82.0114 117° Southeast 161 185 7,000  Level Indianapolis Center
Tue 03:03:49 PM 37.0206 -81.9650 118° Southeast 157 181 7,000 -49 Level Indianapolis Center
Tue 03:04:50 PM 36.9981 -81.9183 121° Southeast 154 177 6,900 -49 Descending Indianapolis Center
Tue 03:05:52 PM 36.9750 -81.8683 120° Southeast 162 186 6,900  Level Indianapolis Center
Tue 03:06:54 PM 36.9536 -81.8189 118° Southeast 162 186 6,900  Level Indianapolis Center
Tue 03:07:56 PM 36.9322 -81.7703 119° Southeast 160 184 6,900  Level Indianapolis Center
Tue 03:08:58 PM 36.9103 -81.7228 120° Southeast 158 182 6,900  Level Indianapolis Center
Tue 03:09:59 PM 36.8842 -81.6664 120° Southeast 160 184 6,900  Level Indianapolis Center
Tue 03:11:01 PM 36.8644 -81.6181 117° Southeast 158 182 6,900 48 Level Indianapolis Center
Tue 03:12:03 PM 36.8433 -81.5692 118° Southeast 158 182 7,000 444 Climbing Indianapolis Center
Tue 03:13:16 PM 36.8122 -81.5083 123° Southeast 174 200 7,900 451 Climbing Atlanta Center
Tue 03:14:16 PM 36.7967 -81.4697 117° Southeast 148 170 8,000 50 Climbing Atlanta Center
Tue 03:15:16 PM 36.7747 -81.4214 120° Southeast 148 170 8,000  Level Atlanta Center
Tue 03:16:16 PM 36.7508 -81.3678 119° Southeast 154 177 8,000 -50 Level Atlanta Center
Tue 03:17:16 PM 36.7286 -81.3139 117° Southeast 161 185 7,900 -50 Descending Atlanta Center
Tue 03:18:16 PM 36.7067 -81.2631 118° Southeast 161 185 7,900 50 Level Atlanta Center
Tue 03:19:16 PM 36.6850 -81.2197 122° Southeast 161 185 8,000 100 Climbing Atlanta Center
Tue 03:20:16 PM 36.6628 -81.1689 119° Southeast 161 185 8,100  Climbing Atlanta Center
Tue 03:21:16 PM 36.6408 -81.1203 119° Southeast 166 191 8,000 -50 Descending Atlanta Center
Tue 03:22:16 PM 36.6211 -81.0744 118° Southeast 161 185 8,000  Level Atlanta Center
Tue 03:23:16 PM 36.5992 -81.0289 121° Southeast 161 185 8,000 50 Level Atlanta Center
Tue 03:24:16 PM 36.5769 -80.9831 121° Southeast 166 191 8,100 -200 Climbing Atlanta Center
Tue 03:25:16 PM 36.5528 -80.9325 121° Southeast 166 191 7,600 -500 Descending Atlanta Center
Tue 03:26:16 PM 36.5308 -80.8842 119° Southeast 166 191 7,100 -250 Descending Atlanta Center
Tue 03:27:16 PM 36.5106 -80.8308 115° Southeast 161 185 7,100  Level Atlanta Center
Tue 03:28:16 PM 36.4908 -80.7875 120° Southeast 154 177 7,100  Level Atlanta Center
Tue 03:29:16 PM 36.4686 -80.7419 121° Southeast 154 177 7,100  Level Atlanta Center
Tue 03:30:16 PM 36.4486 -80.6964 119° Southeast 154 177 7,100 -50 Level Atlanta Center
Tue 03:31:16 PM 36.4264 -80.6483 120° Southeast 154 177 7,000  Descending Atlanta Center
Tue 03:32:16 PM 36.4064 -80.6053 120° Southeast 154 177 7,100  Climbing Atlanta Center
Tue 03:33:16 PM 36.3864 -80.5572 117° Southeast 154 177 7,000 -50 Descending Atlanta Center
Tue 03:34:16 PM 36.3619 -80.5067 121° Southeast 154 177 7,000 50 Level Atlanta Center
Tue 03:35:16 PM 36.3419 -80.4611 119° Southeast 154 177 7,100 50 Climbing Atlanta Center
Tue 03:36:16 PM 36.3219 -80.4208 122° Southeast 154 177 7,100  Level Atlanta Center
Tue 03:38:00 PM 36.2639 -80.3634 141° Southeast  Level FlightAware Approximate
Tue 03:45:00 PM 36.0844 -80.0610 116° Southeast  Level FlightAware Approximate
Tue 03:46:00 PM 36.0648 -80.0139 129° Southeast  Level FlightAware Approximate
Tue 03:47:00 PM 36.0376 -79.9731 129° Southeast  Level FlightAware Approximate
Tue 03:48:00 PM 36.0668 -79.9499 22° Northeast  Level FlightAware Approximate
Tue 03:49:00 PM 36.1000 -79.9333 22° Northeast  Level FlightAware Approximate
Tue 03:50:00 PM 36.1013 -79.9411 22° Northeast  Level Estimated
Tue 03:51:00 PM 36.1000 -79.9333 22° Northeast  Level FlightAware Approximate
Tue 03:52:00 PM 36.1013 -79.9411 22° Northeast  Level Estimated
Tue 03:53:00 PM 36.1000 -79.9333 22° Northeast  Level FlightAware Approximate
Tue 03:54:00 PM 36.1013 -79.9411 22° Northeast  Level Estimated
Tue 03:55:00 PM 36.1000 -79.9333 22° Northeast  Level FlightAware Approximate
Tue 03:56:00 PM 36.1013 -79.9411 22° Northeast  Level Estimated
Tue 03:57:00 PM 36.1000 -79.9333 22° Northeast  Level FlightAware Approximate
Tue 03:58:00 PM 36.1013 -79.9411 22° Northeast  Level Estimated
Tue 03:59:00 PM 36.1000 -79.9333 22° Northeast  Level FlightAware Approximate

Login

Don't have an account? Register now (free) for customized features, flight alerts, and more!